sensor_id;sensor_type;location;lat;lon;timestamp;P1;durP1;ratioP1;P2;durP2;ratioP2
4646;SDS011;2336;47.822;7.564;2022-10-28T03:00:50;5.43;;;4.40;;
4646;SDS011;2336;47.822;7.564;2022-10-28T03:03:16;4.93;;;4.40;;
4646;SDS011;2336;47.822;7.564;2022-10-28T03:05:43;7.07;;;4.20;;
4646;SDS011;2336;47.822;7.564;2022-10-28T03:08:10;5.87;;;5.03;;
4646;SDS011;2336;47.822;7.564;2022-10-28T03:10:37;5.57;;;4.23;;
4646;SDS011;2336;47.822;7.564;2022-10-28T03:13:04;5.40;;;4.73;;
4646;SDS011;2336;47.822;7.564;2022-10-28T03:15:30;4.60;;;4.20;;
4646;SDS011;2336;47.822;7.564;2022-10-28T03:17:58;6.70;;;4.53;;
4646;SDS011;2336;47.822;7.564;2022-10-28T03:20:25;9.23;;;4.40;;
4646;SDS011;2336;47.822;7.564;2022-10-28T03:22:52;6.57;;;4.30;;
4646;SDS011;2336;47.822;7.564;2022-10-28T03:25:18;4.47;;;4.17;;
4646;SDS011;2336;47.822;7.564;2022-10-28T03:27:45;5.00;;;4.60;;
4646;SDS011;2336;47.822;7.564;2022-10-28T03:30:12;5.27;;;3.80;;
4646;SDS011;2336;47.822;7.564;2022-10-28T03:32:40;5.93;;;4.20;;
4646;SDS011;2336;47.822;7.564;2022-10-28T03:35:08;5.07;;;4.70;;
4646;SDS011;2336;47.822;7.564;2022-10-28T03:37:35;4.67;;;4.23;;
4646;SDS011;2336;47.822;7.564;2022-10-28T03:40:02;8.90;;;4.90;;
4646;SDS011;2336;47.822;7.564;2022-10-28T03:42:32;4.17;;;3.80;;
4646;SDS011;2336;47.822;7.564;2022-10-28T03:44:59;4.80;;;4.10;;
4646;SDS011;2336;47.822;7.564;2022-10-28T03:47:25;9.83;;;4.17;;
4646;SDS011;2336;47.822;7.564;2022-10-28T03:49:52;5.23;;;3.80;;
4646;SDS011;2336;47.822;7.564;2022-10-28T03:52:20;4.37;;;4.07;;
4646;SDS011;2336;47.822;7.564;2022-10-28T03:54:47;5.10;;;4.17;;
4646;SDS011;2336;47.822;7.564;2022-10-28T03:57:14;9.53;;;5.60;;
4646;SDS011;2336;47.822;7.564;2022-10-28T03:59:40;6.83;;;4.53;;
4646;SDS011;2336;47.822;7.564;2022-10-28T04:02:07;9.07;;;5.37;;
4646;SDS011;2336;47.822;7.564;2022-10-28T04:04:34;11.70;;;5.70;;
4646;SDS011;2336;47.822;7.564;2022-10-28T04:07:01;9.77;;;5.90;;
4646;SDS011;2336;47.822;7.564;2022-10-28T04:09:29;6.37;;;5.40;;
4646;SDS011;2336;47.822;7.564;2022-10-28T04:11:55;7.70;;;5.83;;
4646;SDS011;2336;47.822;7.564;2022-10-28T04:14:22;8.23;;;5.40;;
4646;SDS011;2336;47.822;7.564;2022-10-28T04:16:49;8.27;;;5.03;;
4646;SDS011;2336;47.822;7.564;2022-10-28T04:19:16;7.97;;;4.97;;
4646;SDS011;2336;47.822;7.564;2022-10-28T04:21:42;5.70;;;5.07;;
4646;SDS011;2336;47.822;7.564;2022-10-28T04:24:09;8.40;;;5.30;;
4646;SDS011;2336;47.822;7.564;2022-10-28T04:26:37;6.53;;;5.70;;
4646;SDS011;2336;47.822;7.564;2022-10-28T04:29:04;4.73;;;4.40;;
4646;SDS011;2336;47.822;7.564;2022-10-28T04:31:31;5.27;;;4.23;;
4646;SDS011;2336;47.822;7.564;2022-10-28T04:33:58;6.03;;;4.67;;
4646;SDS011;2336;47.822;7.564;2022-10-28T04:36:24;5.30;;;4.80;;
4646;SDS011;2336;47.822;7.564;2022-10-28T04:38:51;5.20;;;4.80;;
4646;SDS011;2336;47.822;7.564;2022-10-28T04:41:18;9.17;;;5.67;;
4646;SDS011;2336;47.822;7.564;2022-10-28T04:43:46;9.17;;;5.00;;
4646;SDS011;2336;47.822;7.564;2022-10-28T04:46:12;5.37;;;4.93;;
4646;SDS011;2336;47.822;7.564;2022-10-28T04:48:39;7.37;;;5.70;;
4646;SDS011;2336;47.822;7.564;2022-10-28T04:51:06;6.57;;;5.57;;
4646;SDS011;2336;47.822;7.564;2022-10-28T04:53:33;8.53;;;5.43;;
4646;SDS011;2336;47.822;7.564;2022-10-28T04:55:59;7.60;;;5.03;;
4646;SDS011;2336;47.822;7.564;2022-10-28T04:58:26;13.13;;;5.10;;
4646;SDS011;2336;47.822;7.564;2022-10-28T05:00:54;6.63;;;4.60;;
4646;SDS011;2336;47.822;7.564;2022-10-28T05:03:21;5.63;;;4.53;;
4646;SDS011;2336;47.822;7.564;2022-10-28T05:05:48;4.57;;;4.17;;
4646;SDS011;2336;47.822;7.564;2022-10-28T05:08:14;5.20;;;4.70;;
4646;SDS011;2336;47.822;7.564;2022-10-28T05:10:41;6.80;;;5.10;;
4646;SDS011;2336;47.822;7.564;2022-10-28T05:13:09;7.30;;;5.23;;
4646;SDS011;2336;47.822;7.564;2022-10-28T05:15:35;5.90;;;5.10;;
4646;SDS011;2336;47.822;7.564;2022-10-28T05:18:04;7.87;;;5.33;;
4646;SDS011;2336;47.822;7.564;2022-10-28T05:20:30;6.53;;;5.80;;
4646;SDS011;2336;47.822;7.564;2022-10-28T05:22:57;7.00;;;6.17;;
4646;SDS011;2336;47.822;7.564;2022-10-28T05:25:24;11.97;;;6.20;;
4646;SDS011;2336;47.822;7.564;2022-10-28T05:27:51;10.10;;;6.70;;
4646;SDS011;2336;47.822;7.564;2022-10-28T05:51:02;7.33;;;5.63;;
4646;SDS011;2336;47.822;7.564;2022-10-28T05:53:29;5.10;;;4.60;;
4646;SDS011;2336;47.822;7.564;2022-10-28T05:55:55;4.87;;;4.57;;
4646;SDS011;2336;47.822;7.564;2022-10-28T05:58:22;5.83;;;4.77;;
4646;SDS011;2336;47.822;7.564;2022-10-28T06:00:49;6.10;;;4.87;;
4646;SDS011;2336;47.822;7.564;2022-10-28T06:03:16;5.10;;;4.60;;
4646;SDS011;2336;47.822;7.564;2022-10-28T06:05:43;5.00;;;4.57;;
4646;SDS011;2336;47.822;7.564;2022-10-28T06:08:11;6.77;;;4.80;;
4646;SDS011;2336;47.822;7.564;2022-10-28T06:10:38;5.30;;;4.90;;
4646;SDS011;2336;47.822;7.564;2022-10-28T06:13:06;9.13;;;5.20;;
4646;SDS011;2336;47.822;7.564;2022-10-28T06:15:33;6.57;;;5.03;;
4646;SDS011;2336;47.822;7.564;2022-10-28T06:18:00;6.93;;;4.80;;
4646;SDS011;2336;47.822;7.564;2022-10-28T06:20:27;9.27;;;5.97;;
4646;SDS011;2336;47.822;7.564;2022-10-28T06:22:54;9.30;;;5.67;;
4646;SDS011;2336;47.822;7.564;2022-10-28T06:25:23;7.90;;;4.93;;
4646;SDS011;2336;47.822;7.564;2022-10-28T06:27:51;10.20;;;5.83;;
4646;SDS011;2336;47.822;7.564;2022-10-28T06:30:18;9.87;;;5.47;;
4646;SDS011;2336;47.822;7.564;2022-10-28T06:32:45;5.17;;;4.77;;
4646;SDS011;2336;47.822;7.564;2022-10-28T06:35:12;9.10;;;5.20;;
4646;SDS011;2336;47.822;7.564;2022-10-28T06:37:39;5.80;;;5.20;;
4646;SDS011;2336;47.822;7.564;2022-10-28T06:40:06;5.67;;;5.00;;
4646;SDS011;2336;47.822;7.564;2022-10-28T06:42:35;5.00;;;4.50;;
4646;SDS011;2336;47.822;7.564;2022-10-28T06:45:02;6.80;;;4.90;;
4646;SDS011;2336;47.822;7.564;2022-10-28T06:47:30;7.83;;;5.40;;
4646;SDS011;2336;47.822;7.564;2022-10-28T06:49:56;6.00;;;4.83;;
4646;SDS011;2336;47.822;7.564;2022-10-28T06:52:23;11.13;;;4.77;;
4646;SDS011;2336;47.822;7.564;2022-10-28T06:54:50;5.47;;;4.87;;
4646;SDS011;2336;47.822;7.564;2022-10-28T06:57:16;5.97;;;4.73;;
4646;SDS011;2336;47.822;7.564;2022-10-28T06:59:44;5.27;;;4.70;;
4646;SDS011;2336;47.822;7.564;2022-10-28T07:02:13;6.00;;;5.47;;
4646;SDS011;2336;47.822;7.564;2022-10-28T07:04:40;13.63;;;5.07;;
4646;SDS011;2336;47.822;7.564;2022-10-28T07:07:07;7.23;;;4.83;;
4646;SDS011;2336;47.822;7.564;2022-10-28T07:09:34;6.20;;;4.40;;
4646;SDS011;2336;47.822;7.564;2022-10-28T07:12:03;5.83;;;5.07;;
4646;SDS011;2336;47.822;7.564;2022-10-28T07:14:31;5.40;;;4.90;;
4646;SDS011;2336;47.822;7.564;2022-10-28T07:17:00;7.73;;;4.80;;
4646;SDS011;2336;47.822;7.564;2022-10-28T07:19:27;4.63;;;4.23;;
4646;SDS011;2336;47.822;7.564;2022-10-28T07:21:54;5.90;;;4.80;;
4646;SDS011;2336;47.822;7.564;2022-10-28T07:24:20;8.47;;;4.97;;
4646;SDS011;2336;47.822;7.564;2022-10-28T07:26:47;5.73;;;5.00;;
4646;SDS011;2336;47.822;7.564;2022-10-28T07:29:14;7.60;;;5.53;;
4646;SDS011;2336;47.822;7.564;2022-10-28T07:31:41;7.27;;;5.30;;
4646;SDS011;2336;47.822;7.564;2022-10-28T07:34:09;7.07;;;5.27;;
4646;SDS011;2336;47.822;7.564;2022-10-28T07:36:36;5.47;;;4.97;;
4646;SDS011;2336;47.822;7.564;2022-10-28T07:39:03;9.50;;;5.17;;
4646;SDS011;2336;47.822;7.564;2022-10-28T07:41:30;8.97;;;5.20;;
4646;SDS011;2336;47.822;7.564;2022-10-28T07:43:56;7.90;;;4.60;;
4646;SDS011;2336;47.822;7.564;2022-10-28T07:46:23;7.93;;;4.73;;
4646;SDS011;2336;47.822;7.564;2022-10-28T07:48:50;4.90;;;4.07;;
4646;SDS011;2336;47.822;7.564;2022-10-28T10:16:20;6.30;;;2.40;;
4646;SDS011;2336;47.822;7.564;2022-10-28T10:18:55;6.97;;;2.83;;
4646;SDS011;2336;47.822;7.564;2022-10-28T10:21:38;7.13;;;2.07;;
4646;SDS011;2336;47.822;7.564;2022-10-28T10:24:28;5.80;;;2.80;;
4646;SDS011;2336;47.822;7.564;2022-10-28T10:26:56;3.50;;;2.23;;
4646;SDS011;2336;47.822;7.564;2022-10-28T10:29:26;8.27;;;2.33;;
4646;SDS011;2336;47.822;7.564;2022-10-28T10:32:14;5.77;;;2.13;;
4646;SDS011;2336;47.822;7.564;2022-10-28T10:34:44;4.57;;;2.30;;
4646;SDS011;2336;47.822;7.564;2022-10-28T10:37:17;4.63;;;2.47;;
4646;SDS011;2336;47.822;7.564;2022-10-28T10:39:56;9.73;;;2.40;;
4646;SDS011;2336;47.822;7.564;2022-10-28T10:42:26;4.73;;;2.67;;
4646;SDS011;2336;47.822;7.564;2022-10-28T10:44:55;6.87;;;2.60;;
4646;SDS011;2336;47.822;7.564;2022-10-28T10:47:28;9.70;;;3.00;;
4646;SDS011;2336;47.822;7.564;2022-10-28T10:52:47;5.37;;;2.50;;
4646;SDS011;2336;47.822;7.564;2022-10-28T10:55:20;5.60;;;2.50;;
4646;SDS011;2336;47.822;7.564;2022-10-28T10:57:51;5.07;;;2.27;;
4646;SDS011;2336;47.822;7.564;2022-10-28T11:00:19;9.70;;;2.67;;
4646;SDS011;2336;47.822;7.564;2022-10-28T11:02:50;8.00;;;2.37;;
4646;SDS011;2336;47.822;7.564;2022-10-28T11:05:20;5.27;;;2.50;;
4646;SDS011;2336;47.822;7.564;2022-10-28T11:07:48;5.77;;;2.33;;
4646;SDS011;2336;47.822;7.564;2022-10-28T11:10:20;6.23;;;2.80;;
4646;SDS011;2336;47.822;7.564;2022-10-28T11:12:52;9.57;;;3.13;;
4646;SDS011;2336;47.822;7.564;2022-10-28T11:15:21;9.43;;;2.90;;
4646;SDS011;2336;47.822;7.564;2022-10-28T11:17:55;4.83;;;2.90;;
4646;SDS011;2336;47.822;7.564;2022-10-28T11:20:24;8.27;;;3.40;;
4646;SDS011;2336;47.822;7.564;2022-10-28T11:23:01;6.63;;;2.73;;
4646;SDS011;2336;47.822;7.564;2022-10-28T11:25:35;9.73;;;3.00;;
4646;SDS011;2336;47.822;7.564;2022-10-28T11:28:07;12.77;;;2.80;;
4646;SDS011;2336;47.822;7.564;2022-10-28T11:30:51;9.40;;;3.10;;
4646;SDS011;2336;47.822;7.564;2022-10-28T11:33:29;6.77;;;2.70;;
4646;SDS011;2336;47.822;7.564;2022-10-28T11:36:07;4.43;;;2.70;;
4646;SDS011;2336;47.822;7.564;2022-10-28T11:38:44;7.67;;;2.77;;
4646;SDS011;2336;47.822;7.564;2022-10-28T11:41:25;6.23;;;2.47;;
4646;SDS011;2336;47.822;7.564;2022-10-28T11:43:57;5.83;;;2.77;;
4646;SDS011;2336;47.822;7.564;2022-10-28T11:49:24;7.33;;;2.00;;
4646;SDS011;2336;47.822;7.564;2022-10-28T11:52:16;7.20;;;2.50;;
4646;SDS011;2336;47.822;7.564;2022-10-28T11:54:53;13.30;;;3.03;;
4646;SDS011;2336;47.822;7.564;2022-10-28T11:57:32;7.93;;;2.63;;
4646;SDS011;2336;47.822;7.564;2022-10-28T12:00:22;9.33;;;3.10;;
4646;SDS011;2336;47.822;7.564;2022-10-28T12:03:03;5.33;;;3.20;;
4646;SDS011;2336;47.822;7.564;2022-10-28T12:05:46;9.63;;;3.27;;
4646;SDS011;2336;47.822;7.564;2022-10-28T12:08:24;5.53;;;3.17;;
4646;SDS011;2336;47.822;7.564;2022-10-28T12:11:06;6.27;;;2.57;;
4646;SDS011;2336;47.822;7.564;2022-10-28T12:13:44;15.37;;;2.93;;
4646;SDS011;2336;47.822;7.564;2022-10-28T12:16:16;6.53;;;3.00;;
4646;SDS011;2336;47.822;7.564;2022-10-28T12:18:51;9.53;;;3.07;;
4646;SDS011;2336;47.822;7.564;2022-10-28T12:21:26;6.73;;;3.43;;
4646;SDS011;2336;47.822;7.564;2022-10-28T12:23:58;13.60;;;3.70;;
4646;SDS011;2336;47.822;7.564;2022-10-28T12:26:31;6.97;;;2.77;;
4646;SDS011;2336;47.822;7.564;2022-10-28T12:29:01;10.50;;;3.30;;
4646;SDS011;2336;47.822;7.564;2022-10-28T12:31:31;9.00;;;2.50;;
4646;SDS011;2336;47.822;7.564;2022-10-28T12:34:03;5.50;;;2.77;;
4646;SDS011;2336;47.822;7.564;2022-10-28T12:36:37;4.17;;;2.90;;
4646;SDS011;2336;47.822;7.564;2022-10-28T12:39:09;11.33;;;2.70;;
4646;SDS011;2336;47.822;7.564;2022-10-28T12:41:50;4.40;;;2.90;;
4646;SDS011;2336;47.822;7.564;2022-10-28T12:44:22;7.93;;;3.10;;
4646;SDS011;2336;47.822;7.564;2022-10-28T12:46:53;5.60;;;2.87;;
4646;SDS011;2336;47.822;7.564;2022-10-28T12:49:27;7.13;;;2.97;;
4646;SDS011;2336;47.822;7.564;2022-10-28T12:52:15;4.20;;;2.90;;
4646;SDS011;2336;47.822;7.564;2022-10-28T12:54:51;3.50;;;3.20;;
4646;SDS011;2336;47.822;7.564;2022-10-28T12:57:23;11.03;;;3.90;;
4646;SDS011;2336;47.822;7.564;2022-10-28T12:59:53;6.60;;;3.57;;
4646;SDS011;2336;47.822;7.564;2022-10-28T13:02:25;6.07;;;3.80;;
4646;SDS011;2336;47.822;7.564;2022-10-28T13:04:56;5.03;;;3.40;;
4646;SDS011;2336;47.822;7.564;2022-10-28T13:07:32;8.97;;;3.33;;
4646;SDS011;2336;47.822;7.564;2022-10-28T13:10:18;6.83;;;3.57;;
4646;SDS011;2336;47.822;7.564;2022-10-28T13:12:56;7.60;;;3.23;;
4646;SDS011;2336;47.822;7.564;2022-10-28T13:15:49;7.77;;;3.63;;
4646;SDS011;2336;47.822;7.564;2022-10-28T13:18:38;9.97;;;3.60;;
4646;SDS011;2336;47.822;7.564;2022-10-28T13:21:29;11.33;;;3.40;;
4646;SDS011;2336;47.822;7.564;2022-10-28T13:24:11;13.57;;;3.77;;
4646;SDS011;2336;47.822;7.564;2022-10-28T13:26:43;10.93;;;3.37;;
4646;SDS011;2336;47.822;7.564;2022-10-28T13:29:17;5.97;;;2.93;;
4646;SDS011;2336;47.822;7.564;2022-10-28T13:31:46;7.10;;;3.33;;
4646;SDS011;2336;47.822;7.564;2022-10-28T13:34:14;6.07;;;3.20;;
4646;SDS011;2336;47.822;7.564;2022-10-28T13:36:44;7.40;;;3.40;;
4646;SDS011;2336;47.822;7.564;2022-10-28T13:39:24;7.70;;;2.80;;
4646;SDS011;2336;47.822;7.564;2022-10-28T13:51:43;12.80;;;3.53;;
4646;SDS011;2336;47.822;7.564;2022-10-28T13:54:22;5.03;;;3.10;;
4646;SDS011;2336;47.822;7.564;2022-10-28T13:56:53;8.50;;;3.20;;
4646;SDS011;2336;47.822;7.564;2022-10-28T13:59:28;7.23;;;3.10;;
4646;SDS011;2336;47.822;7.564;2022-10-28T14:04:53;4.33;;;2.80;;
4646;SDS011;2336;47.822;7.564;2022-10-28T14:07:22;9.57;;;3.20;;
4646;SDS011;2336;47.822;7.564;2022-10-28T14:09:54;12.43;;;3.47;;
4646;SDS011;2336;47.822;7.564;2022-10-28T14:12:39;8.83;;;2.77;;
4646;SDS011;2336;47.822;7.564;2022-10-28T14:17:57;8.83;;;3.17;;
4646;SDS011;2336;47.822;7.564;2022-10-28T14:20:27;5.90;;;3.17;;
4646;SDS011;2336;47.822;7.564;2022-10-28T14:22:57;4.10;;;2.87;;
4646;SDS011;2336;47.822;7.564;2022-10-28T14:31:38;5.57;;;3.03;;
4646;SDS011;2336;47.822;7.564;2022-10-28T14:46:04;9.53;;;2.73;;
4646;SDS011;2336;47.822;7.564;2022-10-28T14:48:51;8.27;;;3.03;;
4646;SDS011;2336;47.822;7.564;2022-10-28T14:51:20;10.67;;;3.47;;
4646;SDS011;2336;47.822;7.564;2022-10-28T14:53:52;9.43;;;3.63;;
4646;SDS011;2336;47.822;7.564;2022-10-28T14:56:23;11.67;;;3.30;;
4646;SDS011;2336;47.822;7.564;2022-10-28T14:58:52;5.57;;;3.37;;
4646;SDS011;2336;47.822;7.564;2022-10-28T15:01:26;7.53;;;3.77;;
4646;SDS011;2336;47.822;7.564;2022-10-28T15:03:59;8.33;;;2.97;;
4646;SDS011;2336;47.822;7.564;2022-10-28T15:06:32;5.03;;;3.17;;
4646;SDS011;2336;47.822;7.564;2022-10-28T15:09:02;8.30;;;3.03;;
4646;SDS011;2336;47.822;7.564;2022-10-28T15:11:32;5.70;;;3.10;;
4646;SDS011;2336;47.822;7.564;2022-10-28T15:14:12;5.00;;;2.93;;
4646;SDS011;2336;47.822;7.564;2022-10-28T15:16:47;9.73;;;4.13;;
4646;SDS011;2336;47.822;7.564;2022-10-28T15:19:15;6.27;;;3.50;;
4646;SDS011;2336;47.822;7.564;2022-10-28T15:21:58;8.67;;;3.03;;
4646;SDS011;2336;47.822;7.564;2022-10-28T15:24:30;9.57;;;3.83;;
4646;SDS011;2336;47.822;7.564;2022-10-28T15:26:57;9.13;;;3.77;;
4646;SDS011;2336;47.822;7.564;2022-10-28T15:29:26;11.47;;;3.40;;
4646;SDS011;2336;47.822;7.564;2022-10-28T15:32:03;8.83;;;3.50;;
4646;SDS011;2336;47.822;7.564;2022-10-28T15:34:38;3.43;;;3.13;;
4646;SDS011;2336;47.822;7.564;2022-10-28T15:37:06;11.40;;;3.90;;
4646;SDS011;2336;47.822;7.564;2022-10-28T15:39:33;10.97;;;3.70;;
4646;SDS011;2336;47.822;7.564;2022-10-28T15:42:00;6.00;;;2.77;;
4646;SDS011;2336;47.822;7.564;2022-10-28T15:44:33;10.00;;;3.70;;
4646;SDS011;2336;47.822;7.564;2022-10-28T15:47:05;8.43;;;3.73;;
4646;SDS011;2336;47.822;7.564;2022-10-28T15:49:42;5.80;;;3.70;;
4646;SDS011;2336;47.822;7.564;2022-10-28T15:52:18;13.70;;;5.70;;
4646;SDS011;2336;47.822;7.564;2022-10-28T15:54:52;12.63;;;6.07;;
4646;SDS011;2336;47.822;7.564;2022-10-28T15:57:20;9.70;;;4.93;;
4646;SDS011;2336;47.822;7.564;2022-10-28T15:59:49;7.90;;;4.70;;
4646;SDS011;2336;47.822;7.564;2022-10-28T16:02:43;13.43;;;4.30;;
4646;SDS011;2336;47.822;7.564;2022-10-28T16:08:15;5.10;;;3.90;;
4646;SDS011;2336;47.822;7.564;2022-10-28T16:10:45;12.90;;;4.30;;
4646;SDS011;2336;47.822;7.564;2022-10-28T16:13:16;7.80;;;3.30;;
4646;SDS011;2336;47.822;7.564;2022-10-28T16:15:48;5.13;;;3.87;;
4646;SDS011;2336;47.822;7.564;2022-10-28T16:18:20;13.73;;;4.30;;
4646;SDS011;2336;47.822;7.564;2022-10-28T16:20:48;12.43;;;4.03;;
4646;SDS011;2336;47.822;7.564;2022-10-28T16:23:15;6.87;;;3.73;;
4646;SDS011;2336;47.822;7.564;2022-10-28T16:25:44;5.27;;;3.80;;
4646;SDS011;2336;47.822;7.564;2022-10-28T16:28:14;11.93;;;4.73;;
4646;SDS011;2336;47.822;7.564;2022-10-28T16:30:48;14.07;;;5.77;;
4646;SDS011;2336;47.822;7.564;2022-10-28T16:33:16;9.00;;;3.77;;
4646;SDS011;2336;47.822;7.564;2022-10-28T16:35:44;7.97;;;4.17;;
4646;SDS011;2336;47.822;7.564;2022-10-28T16:38:11;9.17;;;4.20;;
4646;SDS011;2336;47.822;7.564;2022-10-28T16:40:38;14.63;;;4.93;;
4646;SDS011;2336;47.822;7.564;2022-10-28T16:43:07;8.30;;;4.27;;
4646;SDS011;2336;47.822;7.564;2022-10-28T16:45:39;10.20;;;4.47;;
4646;SDS011;2336;47.822;7.564;2022-10-28T16:48:09;7.60;;;4.70;;
4646;SDS011;2336;47.822;7.564;2022-10-28T16:50:37;7.80;;;4.23;;
4646;SDS011;2336;47.822;7.564;2022-10-28T16:53:04;8.40;;;4.40;;
4646;SDS011;2336;47.822;7.564;2022-10-28T16:55:30;8.57;;;4.30;;
4646;SDS011;2336;47.822;7.564;2022-10-28T16:57:57;7.83;;;4.57;;
4646;SDS011;2336;47.822;7.564;2022-10-28T17:00:24;4.80;;;4.30;;
4646;SDS011;2336;47.822;7.564;2022-10-28T17:02:51;6.03;;;4.23;;
4646;SDS011;2336;47.822;7.564;2022-10-28T17:05:20;7.20;;;4.50;;
4646;SDS011;2336;47.822;7.564;2022-10-28T17:07:48;8.53;;;4.13;;
4646;SDS011;2336;47.822;7.564;2022-10-28T17:10:15;9.27;;;4.40;;
4646;SDS011;2336;47.822;7.564;2022-10-28T17:12:42;10.77;;;4.53;;
4646;SDS011;2336;47.822;7.564;2022-10-28T17:15:09;8.30;;;4.30;;
4646;SDS011;2336;47.822;7.564;2022-10-28T17:17:36;12.60;;;5.60;;
4646;SDS011;2336;47.822;7.564;2022-10-28T17:20:03;9.63;;;4.23;;
4646;SDS011;2336;47.822;7.564;2022-10-28T17:22:32;4.93;;;4.33;;
4646;SDS011;2336;47.822;7.564;2022-10-28T17:24:59;6.10;;;4.23;;
4646;SDS011;2336;47.822;7.564;2022-10-28T17:27:25;13.00;;;4.63;;
4646;SDS011;2336;47.822;7.564;2022-10-28T17:29:52;9.10;;;4.50;;
4646;SDS011;2336;47.822;7.564;2022-10-28T17:32:19;15.63;;;4.80;;
4646;SDS011;2336;47.822;7.564;2022-10-28T17:34:46;11.83;;;4.87;;
4646;SDS011;2336;47.822;7.564;2022-10-28T17:37:12;12.30;;;5.10;;
4646;SDS011;2336;47.822;7.564;2022-10-28T17:39:40;11.70;;;5.23;;
4646;SDS011;2336;47.822;7.564;2022-10-28T17:42:07;9.50;;;5.23;;
4646;SDS011;2336;47.822;7.564;2022-10-28T17:44:34;15.40;;;4.93;;
4646;SDS011;2336;47.822;7.564;2022-10-28T17:47:01;16.33;;;5.33;;
4646;SDS011;2336;47.822;7.564;2022-10-28T17:49:28;9.10;;;4.60;;
4646;SDS011;2336;47.822;7.564;2022-10-28T17:51:56;12.20;;;4.97;;
4646;SDS011;2336;47.822;7.564;2022-10-28T17:54:23;9.80;;;4.47;;
4646;SDS011;2336;47.822;7.564;2022-10-28T17:56:51;11.40;;;4.50;;
4646;SDS011;2336;47.822;7.564;2022-10-28T17:59:18;12.83;;;4.37;;
4646;SDS011;2336;47.822;7.564;2022-10-28T18:01:44;12.73;;;4.80;;
4646;SDS011;2336;47.822;7.564;2022-10-28T18:04:12;7.30;;;4.20;;
4646;SDS011;2336;47.822;7.564;2022-10-28T18:06:39;16.60;;;4.50;;
4646;SDS011;2336;47.822;7.564;2022-10-28T18:09:08;10.83;;;5.10;;
4646;SDS011;2336;47.822;7.564;2022-10-28T18:11:36;16.23;;;4.80;;
4646;SDS011;2336;47.822;7.564;2022-10-28T18:14:05;9.90;;;4.97;;
4646;SDS011;2336;47.822;7.564;2022-10-28T18:16:31;6.23;;;4.50;;
4646;SDS011;2336;47.822;7.564;2022-10-28T18:19:01;9.77;;;5.07;;
4646;SDS011;2336;47.822;7.564;2022-10-28T18:21:29;7.70;;;4.83;;
4646;SDS011;2336;47.822;7.564;2022-10-28T18:23:56;7.40;;;4.73;;
4646;SDS011;2336;47.822;7.564;2022-10-28T18:26:28;5.00;;;4.37;;
4646;SDS011;2336;47.822;7.564;2022-10-28T18:28:55;13.47;;;5.97;;
4646;SDS011;2336;47.822;7.564;2022-10-28T18:31:24;10.47;;;5.17;;
4646;SDS011;2336;47.822;7.564;2022-10-28T18:33:51;9.20;;;5.17;;
4646;SDS011;2336;47.822;7.564;2022-10-28T18:36:19;10.20;;;5.10;;
4646;SDS011;2336;47.822;7.564;2022-10-28T18:38:46;15.10;;;6.00;;
4646;SDS011;2336;47.822;7.564;2022-10-28T18:41:14;8.93;;;5.50;;
4646;SDS011;2336;47.822;7.564;2022-10-28T18:43:42;6.40;;;4.93;;
4646;SDS011;2336;47.822;7.564;2022-10-28T18:46:09;15.63;;;5.20;;
4646;SDS011;2336;47.822;7.564;2022-10-28T18:48:38;8.20;;;6.00;;
4646;SDS011;2336;47.822;7.564;2022-10-28T18:51:05;14.50;;;7.40;;
4646;SDS011;2336;47.822;7.564;2022-10-28T18:53:33;12.17;;;5.50;;
4646;SDS011;2336;47.822;7.564;2022-10-28T18:56:00;21.27;;;5.73;;
4646;SDS011;2336;47.822;7.564;2022-10-28T18:58:28;6.70;;;4.80;;
4646;SDS011;2336;47.822;7.564;2022-10-28T19:01:01;15.53;;;5.93;;
4646;SDS011;2336;47.822;7.564;2022-10-28T19:03:29;11.10;;;4.83;;
4646;SDS011;2336;47.822;7.564;2022-10-28T19:06:00;13.60;;;5.70;;
4646;SDS011;2336;47.822;7.564;2022-10-28T19:08:27;8.80;;;4.97;;
4646;SDS011;2336;47.822;7.564;2022-10-28T19:10:55;6.40;;;5.27;;
4646;SDS011;2336;47.822;7.564;2022-10-28T19:13:22;9.20;;;5.00;;
4646;SDS011;2336;47.822;7.564;2022-10-28T19:15:49;12.00;;;4.80;;
4646;SDS011;2336;47.822;7.564;2022-10-28T19:18:16;7.60;;;4.50;;
4646;SDS011;2336;47.822;7.564;2022-10-28T19:20:43;10.27;;;5.87;;
4646;SDS011;2336;47.822;7.564;2022-10-28T19:23:11;12.27;;;5.47;;
4646;SDS011;2336;47.822;7.564;2022-10-28T19:25:38;6.80;;;5.20;;
4646;SDS011;2336;47.822;7.564;2022-10-28T19:28:05;9.20;;;5.90;;
4646;SDS011;2336;47.822;7.564;2022-10-28T19:30:32;15.70;;;5.27;;
4646;SDS011;2336;47.822;7.564;2022-10-28T19:33:00;14.53;;;4.50;;
4646;SDS011;2336;47.822;7.564;2022-10-28T19:35:27;7.90;;;4.90;;
4646;SDS011;2336;47.822;7.564;2022-10-28T19:37:54;8.80;;;4.80;;
4646;SDS011;2336;47.822;7.564;2022-10-28T19:40:22;6.00;;;4.80;;
4646;SDS011;2336;47.822;7.564;2022-10-28T19:42:51;9.93;;;5.67;;
4646;SDS011;2336;47.822;7.564;2022-10-28T19:45:18;21.13;;;5.77;;
4646;SDS011;2336;47.822;7.564;2022-10-28T19:47:45;15.10;;;5.37;;
4646;SDS011;2336;47.822;7.564;2022-10-28T19:50:12;9.40;;;5.20;;
4646;SDS011;2336;47.822;7.564;2022-10-28T19:52:40;9.20;;;5.50;;
4646;SDS011;2336;47.822;7.564;2022-10-28T19:55:07;5.00;;;4.03;;
4646;SDS011;2336;47.822;7.564;2022-10-28T19:57:35;10.27;;;5.30;;
4646;SDS011;2336;47.822;7.564;2022-10-28T20:00:02;9.50;;;4.33;;
4646;SDS011;2336;47.822;7.564;2022-10-28T20:02:30;8.87;;;4.60;;
4646;SDS011;2336;47.822;7.564;2022-10-28T20:04:56;13.60;;;4.50;;
4646;SDS011;2336;47.822;7.564;2022-10-28T20:07:23;12.90;;;4.80;;
4646;SDS011;2336;47.822;7.564;2022-10-28T20:09:50;5.43;;;3.83;;
4646;SDS011;2336;47.822;7.564;2022-10-28T20:12:18;8.27;;;5.27;;
4646;SDS011;2336;47.822;7.564;2022-10-28T20:14:47;6.17;;;4.23;;
4646;SDS011;2336;47.822;7.564;2022-10-28T20:17:14;13.67;;;4.80;;
4646;SDS011;2336;47.822;7.564;2022-10-28T20:19:41;7.43;;;4.47;;
4646;SDS011;2336;47.822;7.564;2022-10-28T20:22:08;9.10;;;5.00;;
4646;SDS011;2336;47.822;7.564;2022-10-28T20:24:35;6.37;;;4.47;;
4646;SDS011;2336;47.822;7.564;2022-10-28T20:27:01;8.97;;;5.23;;
4646;SDS011;2336;47.822;7.564;2022-10-28T20:29:28;13.13;;;4.80;;
4646;SDS011;2336;47.822;7.564;2022-10-28T20:31:56;9.20;;;4.53;;
4646;SDS011;2336;47.822;7.564;2022-10-28T20:34:23;10.73;;;5.13;;
4646;SDS011;2336;47.822;7.564;2022-10-28T20:36:50;8.23;;;5.23;;
4646;SDS011;2336;47.822;7.564;2022-10-28T20:39:17;11.60;;;5.50;;
4646;SDS011;2336;47.822;7.564;2022-10-28T20:41:45;10.70;;;5.10;;
4646;SDS011;2336;47.822;7.564;2022-10-28T20:44:13;13.07;;;5.43;;
4646;SDS011;2336;47.822;7.564;2022-10-28T20:46:40;9.00;;;5.07;;
4646;SDS011;2336;47.822;7.564;2022-10-28T20:49:10;7.70;;;5.30;;
4646;SDS011;2336;47.822;7.564;2022-10-28T20:51:37;9.90;;;5.20;;
4646;SDS011;2336;47.822;7.564;2022-10-28T20:54:04;7.30;;;5.17;;
4646;SDS011;2336;47.822;7.564;2022-10-28T20:56:32;7.50;;;5.57;;
4646;SDS011;2336;47.822;7.564;2022-10-28T20:59:00;12.03;;;6.40;;
